createdAt,value
2023-05-01T00:00:18.372Z,13.97
2023-05-01T00:02:47.833Z,14.00
2023-05-01T00:05:16.937Z,13.75
2023-05-01T00:07:45.682Z,13.79
2023-05-01T00:10:14.728Z,13.92
2023-05-01T00:12:43.702Z,13.82
2023-05-01T00:15:13.869Z,13.76
2023-05-01T00:17:42.839Z,13.74
2023-05-01T00:20:12.188Z,13.86
2023-05-01T00:22:40.884Z,13.81
2023-05-01T00:25:10.605Z,13.71
2023-05-01T00:27:39.271Z,13.73
2023-05-01T00:30:09.386Z,13.68
2023-05-01T00:32:39.784Z,13.70
2023-05-01T00:35:09.296Z,13.52
2023-05-01T00:37:38.539Z,13.45
2023-05-01T00:40:08.596Z,13.55
2023-05-01T00:42:41.610Z,13.73
2023-05-01T00:45:11.547Z,13.55
2023-05-01T00:47:41.873Z,13.59
2023-05-01T00:50:11.615Z,13.65
2023-05-01T00:52:40.851Z,13.55
2023-05-01T00:55:09.992Z,13.52
2023-05-01T00:57:39.091Z,13.58
2023-05-01T01:00:11.266Z,13.58
2023-05-01T01:02:41.788Z,13.35
2023-05-01T01:05:11.535Z,13.47
2023-05-01T01:07:43.434Z,13.27
2023-05-01T01:10:20.352Z,13.39
2023-05-01T01:12:56.082Z,13.39
2023-05-01T01:15:31.231Z,13.49
2023-05-01T01:18:09.770Z,13.45
2023-05-01T01:20:41.093Z,13.48
2023-05-01T01:23:45.072Z,13.32
2023-05-01T01:26:38.838Z,13.32
2023-05-01T01:29:45.304Z,13.32
2023-05-01T01:32:31.980Z,13.23
2023-05-01T01:35:05.163Z,13.31
2023-05-01T01:37:42.157Z,13.21
2023-05-01T01:40:14.295Z,13.23
2023-05-01T01:42:46.178Z,13.24
2023-05-01T01:45:20.581Z,13.27
2023-05-01T01:47:49.579Z,13.20
2023-05-01T01:50:21.547Z,13.34
2023-05-01T01:52:51.539Z,13.33
2023-05-01T01:55:24.111Z,13.29
2023-05-01T01:57:53.748Z,13.36
2023-05-01T02:00:23.519Z,13.19
2023-05-01T02:02:53.939Z,13.47
2023-05-01T02:05:26.189Z,13.46
2023-05-01T02:07:57.764Z,13.41
2023-05-01T02:10:27.288Z,13.28
2023-05-01T02:12:56.648Z,13.48
2023-05-01T02:15:26.134Z,13.66
2023-05-01T02:17:55.199Z,13.70
2023-05-01T02:20:25.924Z,13.54
2023-05-01T02:22:55.360Z,13.69
2023-05-01T02:25:29.516Z,13.68
2023-05-01T02:28:04.399Z,13.88
2023-05-01T02:30:33.366Z,13.83
2023-05-01T02:33:02.109Z,14.03
2023-05-01T02:35:32.205Z,13.85
2023-05-01T02:38:01.125Z,13.64
2023-05-01T02:40:29.854Z,13.29
2023-05-01T02:42:59.075Z,13.71
2023-05-01T02:45:28.974Z,13.49
2023-05-01T02:47:59.620Z,13.58
2023-05-01T02:50:29.266Z,13.92
2023-05-01T02:52:59.912Z,14.02
2023-05-01T02:55:29.275Z,14.17
2023-05-01T02:57:59.641Z,14.12
2023-05-01T03:00:28.847Z,13.94
2023-05-01T03:02:58.325Z,14.02
2023-05-01T03:05:27.058Z,14.17
2023-05-01T03:07:55.788Z,14.28
2023-05-01T03:10:26.097Z,14.24
2023-05-01T03:12:54.802Z,14.20
2023-05-01T03:15:23.576Z,14.31
2023-05-01T03:17:52.548Z,14.22
2023-05-01T03:20:21.627Z,14.30
2023-05-01T03:22:50.585Z,14.33
2023-05-01T03:25:19.516Z,14.25
2023-05-01T03:27:50.736Z,14.14
2023-05-01T03:30:19.798Z,14.06
2023-05-01T03:32:48.469Z,13.94
2023-05-01T03:35:17.546Z,14.15
2023-05-01T03:37:46.702Z,14.02
2023-05-01T03:40:16.926Z,13.91
2023-05-01T03:42:56.975Z,13.70
2023-05-01T03:45:25.728Z,13.72
2023-05-01T03:47:57.111Z,13.66
2023-05-01T03:50:25.890Z,13.83
2023-05-01T03:52:57.609Z,13.61
2023-05-01T03:55:26.798Z,13.83
2023-05-01T03:57:57.226Z,13.90
2023-05-01T04:00:25.933Z,13.80
2023-05-01T04:03:02.570Z,13.82
2023-05-01T04:05:33.964Z,13.61
2023-05-01T04:08:04.400Z,13.79
2023-05-01T04:10:33.657Z,13.57
2023-05-01T04:13:03.794Z,13.79
2023-05-01T04:15:32.694Z,13.59
2023-05-01T04:18:01.902Z,13.81
2023-05-01T04:20:31.443Z,13.89
2023-05-01T04:23:00.349Z,14.22
2023-05-01T04:25:29.446Z,14.15
2023-05-01T04:27:58.665Z,14.04
2023-05-01T04:30:28.924Z,14.11
2023-05-01T04:32:57.642Z,14.23
2023-05-01T04:35:26.894Z,14.73
2023-05-01T04:37:56.220Z,15.72
2023-05-01T04:40:24.851Z,16.35
2023-05-01T04:42:53.618Z,17.08
2023-05-01T04:45:22.612Z,17.46
2023-05-01T04:47:53.228Z,17.17
2023-05-01T04:50:23.532Z,18.02
2023-05-01T04:52:52.411Z,18.08
2023-05-01T04:55:21.310Z,18.42
2023-05-01T04:57:53.000Z,17.94
2023-05-01T05:00:21.934Z,18.25
2023-05-01T05:02:53.154Z,18.59
2023-05-01T05:05:21.984Z,18.89
2023-05-01T05:07:51.032Z,19.53
2023-05-01T05:10:22.767Z,19.04
2023-05-01T05:12:53.401Z,18.81
2023-05-01T05:15:22.065Z,18.34
2023-05-01T05:17:50.849Z,17.31
2023-05-01T05:20:21.244Z,18.12
2023-05-01T05:22:49.933Z,17.69
2023-05-01T05:25:19.635Z,16.67
2023-05-01T05:27:48.268Z,16.64
2023-05-01T05:30:16.973Z,16.77
2023-05-01T05:32:48.254Z,16.67
2023-05-01T05:35:17.143Z,17.22
2023-05-01T05:37:50.446Z,17.05
2023-05-01T05:40:19.696Z,16.76
2023-05-01T05:42:49.139Z,16.09
2023-05-01T05:45:18.195Z,16.53
2023-05-01T05:47:46.918Z,16.68
2023-05-01T05:50:16.219Z,16.29
2023-05-01T05:52:45.354Z,15.54
2023-05-01T05:55:16.338Z,15.00
2023-05-01T05:57:47.180Z,15.22
2023-05-01T06:00:17.215Z,15.30
2023-05-01T06:02:46.578Z,15.53
2023-05-01T06:05:15.508Z,15.36
2023-05-01T06:07:44.664Z,15.07
2023-05-01T06:10:14.896Z,14.85
2023-05-01T06:12:47.743Z,14.82
2023-05-01T06:15:18.662Z,14.70
2023-05-01T06:17:47.997Z,14.51
2023-05-01T06:20:16.904Z,14.85
2023-05-01T06:22:46.935Z,15.53
2023-05-01T06:25:17.197Z,14.56
2023-05-01T06:27:46.278Z,14.38
2023-05-01T06:30:15.090Z,14.52
2023-05-01T06:32:44.599Z,15.34
2023-05-01T06:35:13.905Z,14.59
2023-05-01T06:37:42.578Z,15.00
2023-05-01T06:40:12.266Z,14.86
2023-05-01T06:42:43.006Z,15.24
2023-05-01T06:45:11.818Z,14.94
2023-05-01T06:47:40.746Z,15.06
2023-05-01T06:50:12.029Z,15.13
2023-05-01T06:52:41.282Z,15.33
2023-05-01T06:55:10.926Z,15.19
2023-05-01T06:57:40.268Z,15.04
2023-05-01T07:00:11.993Z,15.18
2023-05-01T07:02:41.267Z,15.63
2023-05-01T07:05:10.305Z,15.61
2023-05-01T07:07:40.414Z,15.81
2023-05-01T07:10:13.682Z,15.91
2023-05-01T07:12:43.724Z,16.24
2023-05-01T07:15:14.355Z,16.17
2023-05-01T07:17:43.441Z,15.45
2023-05-01T07:20:12.725Z,15.48
2023-05-01T07:22:41.362Z,15.48
2023-05-01T07:25:10.867Z,15.51
2023-05-01T07:27:39.484Z,16.05
2023-05-01T07:30:09.344Z,15.75
2023-05-01T07:32:39.647Z,15.48
2023-05-01T07:35:09.692Z,15.89
2023-05-01T07:37:38.953Z,16.31
2023-05-01T07:40:08.890Z,16.90
2023-05-01T07:42:37.819Z,17.21
2023-05-01T07:45:07.555Z,17.14
2023-05-01T07:47:36.563Z,16.44
2023-05-01T07:50:11.286Z,16.57
2023-05-01T07:52:40.257Z,16.76
2023-05-01T07:55:10.375Z,16.59
2023-05-01T07:57:39.300Z,16.77
2023-05-01T08:00:09.295Z,16.28
2023-05-01T08:02:44.755Z,16.71
2023-05-01T08:05:15.173Z,17.28
2023-05-01T08:07:43.815Z,16.88
2023-05-01T08:10:12.748Z,16.64
2023-05-01T08:12:41.740Z,17.22
2023-05-01T08:15:10.979Z,17.20
2023-05-01T08:17:39.749Z,16.90
2023-05-01T08:20:10.257Z,17.01
2023-05-01T08:22:40.249Z,16.81
2023-05-01T08:25:09.645Z,16.90
2023-05-01T08:27:38.571Z,16.87
2023-05-01T08:30:08.628Z,16.87
2023-05-01T08:32:37.566Z,16.75
2023-05-01T08:35:06.963Z,17.02
2023-05-01T08:37:35.684Z,17.45
2023-05-01T08:40:09.004Z,17.73
2023-05-01T08:42:38.945Z,16.78
2023-05-01T08:45:09.381Z,17.25
2023-05-01T08:47:39.479Z,17.24
2023-05-01T08:50:14.829Z,17.48
2023-05-01T08:52:43.705Z,18.04
2023-05-01T08:55:16.126Z,18.37
2023-05-01T08:57:46.379Z,18.15
2023-05-01T09:00:19.412Z,18.31
2023-05-01T09:02:49.766Z,17.87
2023-05-01T09:05:19.693Z,17.42
2023-05-01T09:07:49.434Z,17.37
2023-05-01T09:10:19.782Z,17.58
2023-05-01T09:12:51.811Z,17.94
2023-05-01T09:15:20.501Z,17.79
2023-05-01T09:17:49.486Z,17.84
2023-05-01T09:20:20.200Z,17.77
2023-05-01T09:22:49.218Z,18.59
2023-05-01T09:25:19.460Z,18.81
2023-05-01T09:27:48.534Z,19.50
2023-05-01T09:30:31.676Z,19.53
2023-05-01T09:33:07.593Z,19.09
2023-05-01T09:35:53.140Z,19.73
2023-05-01T09:38:22.993Z,18.92
2023-05-01T09:40:56.635Z,19.35
2023-05-01T09:43:29.565Z,19.39
2023-05-01T09:46:03.821Z,19.07
2023-05-01T09:48:35.366Z,19.95
2023-05-01T09:51:25.344Z,20.33
2023-05-01T09:53:55.410Z,20.55
2023-05-01T09:56:27.147Z,20.60
2023-05-01T09:58:56.959Z,20.83
2023-05-01T10:01:39.671Z,20.19
2023-05-01T10:04:09.969Z,20.53
2023-05-01T10:06:39.494Z,20.64
2023-05-01T10:09:16.356Z,20.77
2023-05-01T10:11:59.031Z,20.13
2023-05-01T10:14:30.541Z,20.18
2023-05-01T10:16:59.498Z,19.99
2023-05-01T10:19:28.418Z,20.38
2023-05-01T10:21:57.081Z,19.91
2023-05-01T10:24:26.388Z,19.90
2023-05-01T10:26:56.791Z,19.81
2023-05-01T10:29:25.708Z,19.61
2023-05-01T10:31:54.831Z,20.26
2023-05-01T10:34:26.356Z,20.12
2023-05-01T10:37:00.357Z,19.34
2023-05-01T10:39:32.462Z,20.15
2023-05-01T10:42:06.236Z,20.19
2023-05-01T10:44:35.905Z,20.54
2023-05-01T10:47:42.993Z,20.79
2023-05-01T10:50:12.768Z,20.89
2023-05-01T10:53:16.188Z,21.12
2023-05-01T10:55:46.177Z,21.30
2023-05-01T10:58:55.975Z,21.63
2023-05-01T11:01:33.137Z,21.93
2023-05-01T11:04:04.718Z,22.41
2023-05-01T11:06:33.614Z,22.05
2023-05-01T11:09:04.599Z,22.68
2023-05-01T11:11:50.299Z,22.38
2023-05-01T11:14:20.759Z,22.18
2023-05-01T11:16:49.839Z,21.82
2023-05-01T11:19:49.061Z,22.01
2023-05-01T11:22:18.305Z,21.87
2023-05-01T11:24:48.017Z,22.07
2023-05-01T11:27:18.175Z,22.39
2023-05-01T11:29:51.771Z,22.06
2023-05-01T11:32:26.454Z,22.30
2023-05-01T11:34:55.842Z,22.11
2023-05-01T11:37:42.840Z,21.54
2023-05-01T11:40:22.506Z,21.83
2023-05-01T11:42:52.227Z,22.13
2023-05-01T11:45:22.565Z,22.61
2023-05-01T11:47:51.319Z,22.81
2023-05-01T11:50:21.499Z,23.08
2023-05-01T11:52:53.508Z,23.21
2023-05-01T11:55:22.800Z,23.49
2023-05-01T11:57:53.604Z,23.77
2023-05-01T12:00:33.662Z,24.20
2023-05-01T12:03:04.148Z,24.47
2023-05-01T12:05:35.511Z,24.64
2023-05-01T12:08:12.604Z,24.36
2023-05-01T12:10:43.123Z,24.41
2023-05-01T12:13:14.202Z,24.04
2023-05-01T12:15:49.503Z,23.35
2023-05-01T12:18:19.085Z,23.86
2023-05-01T12:20:50.310Z,24.26
2023-05-01T12:23:20.364Z,24.33
2023-05-01T12:25:49.047Z,24.95
2023-05-01T12:28:20.417Z,25.02
2023-05-01T12:30:50.878Z,25.00
2023-05-01T12:33:20.817Z,24.88
2023-05-01T12:35:51.470Z,25.17
2023-05-01T12:38:21.080Z,24.69
2023-05-01T12:40:54.528Z,24.86
2023-05-01T12:43:31.571Z,25.34
2023-05-01T12:46:02.768Z,24.96
2023-05-01T12:48:31.662Z,25.22
2023-05-01T12:51:01.610Z,25.43
2023-05-01T12:53:30.813Z,26.19
2023-05-01T12:56:01.269Z,25.71
2023-05-01T12:58:37.274Z,25.92
2023-05-01T13:01:07.336Z,25.55
2023-05-01T13:03:39.365Z,25.51
2023-05-01T13:06:10.176Z,25.67
2023-05-01T13:08:40.701Z,26.22
2023-05-01T13:11:13.960Z,25.74
2023-05-01T13:13:45.178Z,26.51
2023-05-01T13:16:16.606Z,26.75
2023-05-01T13:18:49.191Z,26.91
2023-05-01T13:21:20.159Z,26.80
2023-05-01T13:23:56.537Z,27.34
2023-05-01T13:26:28.837Z,27.13
2023-05-01T13:28:58.674Z,27.48
2023-05-01T13:31:28.823Z,27.37
2023-05-01T13:33:59.683Z,27.41
2023-05-01T13:36:32.902Z,27.33
2023-05-01T13:39:02.139Z,27.99
2023-05-01T13:41:31.066Z,28.41
2023-05-01T13:44:00.046Z,28.60
2023-05-01T13:46:30.727Z,28.87
2023-05-01T13:49:04.137Z,29.04
2023-05-01T13:51:36.552Z,29.14
2023-05-01T13:54:07.485Z,29.45
2023-05-01T13:56:36.812Z,29.07
2023-05-01T13:59:05.610Z,29.32
2023-05-01T14:01:40.154Z,29.13
2023-05-01T14:04:10.594Z,29.44
2023-05-01T14:06:44.074Z,29.72
2023-05-01T14:09:13.339Z,30.08
2023-05-01T14:11:46.776Z,29.65
2023-05-01T14:14:17.311Z,29.92
2023-05-01T14:16:53.163Z,29.96
2023-05-01T14:19:22.544Z,29.75
2023-05-01T14:21:51.159Z,30.14
2023-05-01T14:24:19.897Z,30.30
2023-05-01T14:26:50.208Z,30.44
2023-05-01T14:29:26.800Z,30.61
2023-05-01T14:31:57.347Z,30.49
2023-05-01T14:34:28.548Z,29.51
2023-05-01T14:36:58.332Z,29.95
2023-05-01T14:39:27.963Z,30.17
2023-05-01T14:41:58.241Z,30.59
2023-05-01T14:44:27.720Z,30.27
2023-05-01T14:46:58.872Z,30.40
2023-05-01T14:49:27.961Z,29.67
2023-05-01T14:51:56.601Z,29.87
2023-05-01T14:54:25.233Z,29.95
2023-05-01T14:56:54.157Z,30.30
2023-05-01T14:59:24.591Z,29.44
2023-05-01T15:01:53.373Z,29.47
2023-05-01T15:04:27.049Z,28.61
2023-05-01T15:06:55.861Z,28.08
2023-05-01T15:09:24.789Z,28.00
2023-05-01T15:11:53.506Z,28.53
2023-05-01T15:14:22.559Z,28.04
2023-05-01T15:16:51.687Z,28.33
2023-05-01T15:19:21.759Z,28.21
2023-05-01T15:21:51.739Z,27.60
2023-05-01T15:24:21.008Z,27.37
2023-05-01T15:26:49.745Z,27.05
2023-05-01T15:29:18.345Z,26.56
2023-05-01T15:31:49.323Z,26.27
2023-05-01T15:34:20.718Z,26.50
2023-05-01T15:37:20.481Z,25.68
2023-05-01T15:39:52.605Z,25.06
2023-05-01T15:42:21.843Z,25.85
2023-05-01T15:44:50.439Z,26.02
2023-05-01T15:47:19.135Z,25.96
2023-05-01T15:49:48.633Z,25.82
2023-05-01T15:52:18.633Z,25.51
2023-05-01T15:54:47.930Z,25.11
2023-05-01T15:57:17.757Z,25.07
2023-05-01T15:59:51.304Z,24.92
2023-05-01T16:02:20.394Z,24.88
2023-05-01T16:04:49.490Z,24.79
2023-05-01T16:07:21.297Z,24.59
2023-05-01T16:09:50.286Z,24.36
2023-05-01T16:12:19.128Z,24.31
2023-05-01T16:14:48.561Z,23.83
2023-05-01T16:17:19.542Z,23.90
2023-05-01T16:19:48.201Z,23.53
2023-05-01T16:22:17.245Z,23.50
2023-05-01T16:24:47.302Z,22.93
2023-05-01T16:27:19.220Z,22.76
2023-05-01T16:29:48.148Z,22.84
2023-05-01T16:32:17.895Z,22.35
2023-05-01T16:34:46.686Z,22.32
2023-05-01T16:37:16.283Z,22.36
2023-05-01T16:39:45.016Z,21.79
2023-05-01T16:42:15.664Z,22.44
2023-05-01T16:44:44.368Z,22.44
2023-05-01T16:47:13.729Z,22.24
2023-05-01T16:49:42.833Z,22.24
2023-05-01T16:52:14.194Z,22.41
2023-05-01T16:54:42.996Z,22.03
2023-05-01T16:57:11.982Z,21.95
2023-05-01T16:59:42.005Z,21.97
2023-05-01T17:02:10.940Z,21.78
2023-05-01T17:04:40.268Z,21.35
2023-05-01T17:07:09.232Z,21.23
2023-05-01T17:09:38.229Z,21.32
2023-05-01T17:12:07.823Z,21.25
2023-05-01T17:14:36.460Z,21.31
2023-05-01T17:17:09.356Z,21.37
2023-05-01T17:19:39.624Z,21.20
2023-05-01T17:22:08.765Z,21.03
2023-05-01T17:24:37.702Z,21.04
2023-05-01T17:27:07.733Z,20.89
2023-05-01T17:29:37.176Z,20.95
2023-05-01T17:32:08.321Z,20.57
2023-05-01T17:34:41.139Z,20.57
2023-05-01T17:37:10.996Z,20.60
2023-05-01T17:39:42.828Z,20.37
2023-05-01T17:42:12.072Z,20.09
2023-05-01T17:44:40.964Z,20.15
2023-05-01T17:47:11.585Z,20.49
2023-05-01T17:49:41.273Z,20.41
2023-05-01T17:52:10.355Z,19.76
2023-05-01T17:54:39.902Z,20.24
2023-05-01T17:57:10.471Z,19.89
2023-05-01T17:59:39.445Z,20.33
2023-05-01T18:02:11.027Z,20.43
2023-05-01T18:04:41.456Z,20.52
2023-05-01T18:07:10.918Z,20.30
2023-05-01T18:09:40.951Z,20.30
2023-05-01T18:12:11.334Z,20.29
2023-05-01T18:14:40.948Z,20.16
2023-05-01T18:17:10.330Z,19.92
2023-05-01T18:19:39.578Z,19.56
2023-05-01T18:22:10.600Z,19.66
2023-05-01T18:24:43.844Z,19.60
2023-05-01T18:27:13.343Z,19.68
2023-05-01T18:29:42.706Z,19.38
2023-05-01T18:32:13.867Z,19.58
2023-05-01T18:34:43.432Z,19.50
2023-05-01T18:37:13.804Z,19.65
2023-05-01T18:39:43.653Z,19.40
2023-05-01T18:42:13.038Z,19.10
2023-05-01T18:44:42.165Z,19.14
2023-05-01T18:47:15.473Z,19.40
2023-05-01T18:49:45.469Z,19.16
2023-05-01T18:52:16.703Z,19.25
2023-05-01T18:54:47.287Z,19.06
2023-05-01T18:57:16.426Z,19.13
2023-05-01T18:59:45.401Z,19.00
2023-05-01T19:02:15.479Z,19.05
2023-05-01T19:04:56.771Z,19.08
2023-05-01T19:07:33.874Z,19.10
2023-05-01T19:10:05.036Z,19.02
2023-05-01T19:12:34.794Z,19.02
2023-05-01T19:15:05.429Z,18.96
2023-05-01T19:17:35.937Z,18.71
2023-05-01T19:20:07.582Z,18.67
2023-05-01T19:22:41.626Z,18.96
2023-05-01T19:25:13.967Z,18.87
2023-05-01T19:27:47.632Z,18.88
2023-05-01T19:30:18.251Z,18.81
2023-05-01T19:32:49.400Z,18.68
2023-05-01T19:35:20.080Z,18.71
2023-05-01T19:37:57.004Z,18.65
2023-05-01T19:40:27.167Z,18.61
2023-05-01T19:42:56.863Z,18.64
2023-05-01T19:45:26.841Z,18.61
2023-05-01T19:47:56.414Z,18.48
2023-05-01T19:50:25.551Z,18.48
2023-05-01T19:52:56.563Z,18.32
2023-05-01T19:55:25.871Z,18.35
2023-05-01T19:57:55.244Z,18.19
2023-05-01T20:00:25.028Z,18.19
2023-05-01T20:02:55.091Z,18.02
2023-05-01T20:05:28.453Z,18.07
2023-05-01T20:08:01.314Z,17.95
2023-05-01T20:10:30.749Z,17.84
2023-05-01T20:13:01.789Z,17.73
2023-05-01T20:15:31.795Z,17.78
2023-05-01T20:18:02.644Z,17.78
2023-05-01T20:20:32.014Z,17.75
2023-05-01T20:23:15.890Z,17.64
2023-05-01T20:25:48.847Z,17.56
2023-05-01T20:28:19.163Z,17.49
2023-05-01T20:30:51.267Z,17.42
2023-05-01T20:33:20.614Z,17.38
2023-05-01T20:35:49.646Z,17.33
2023-05-01T20:38:20.357Z,17.35
2023-05-01T20:41:07.525Z,17.22
2023-05-01T20:43:36.530Z,17.23
2023-05-01T20:46:05.856Z,17.17
2023-05-01T20:48:34.697Z,17.13
2023-05-01T20:51:04.157Z,17.13
2023-05-01T20:53:34.284Z,17.16
2023-05-01T20:56:04.753Z,17.00
2023-05-01T20:58:33.567Z,16.91
2023-05-01T21:01:02.308Z,16.99
2023-05-01T21:03:31.419Z,16.85
2023-05-01T21:06:00.331Z,16.84
2023-05-01T21:08:29.429Z,16.81
2023-05-01T21:10:59.729Z,16.82
2023-05-01T21:13:28.971Z,16.62
2023-05-01T21:15:59.063Z,16.43
2023-05-01T21:18:28.892Z,16.54
2023-05-01T21:20:59.492Z,16.54
2023-05-01T21:23:28.248Z,16.42
2023-05-01T21:25:56.961Z,16.45
2023-05-01T21:28:27.644Z,16.47
2023-05-01T21:30:56.496Z,16.53
2023-05-01T21:33:25.145Z,16.34
2023-05-01T21:35:54.115Z,16.47
2023-05-01T21:38:22.716Z,16.42
2023-05-01T21:40:51.409Z,16.31
2023-05-01T21:43:20.662Z,16.25
2023-05-01T21:45:50.727Z,16.39
2023-05-01T21:48:20.613Z,16.28
2023-05-01T21:50:50.778Z,16.31
2023-05-01T21:53:19.521Z,16.33
2023-05-01T21:55:48.507Z,16.25
2023-05-01T21:58:17.501Z,16.21
2023-05-01T22:00:47.205Z,16.16
2023-05-01T22:03:21.555Z,16.28
2023-05-01T22:05:50.801Z,16.31
2023-05-01T22:08:20.121Z,16.28
2023-05-01T22:10:48.909Z,16.34
2023-05-01T22:13:17.618Z,16.27
2023-05-01T22:15:48.775Z,16.22
2023-05-01T22:18:19.596Z,16.25
2023-05-01T22:20:48.483Z,16.18
2023-05-01T22:23:17.004Z,16.22
2023-05-01T22:25:46.309Z,16.25
2023-05-01T22:28:18.322Z,16.27
2023-05-01T22:30:47.766Z,16.11
2023-05-01T22:33:18.150Z,16.03
2023-05-01T22:35:46.911Z,16.16
2023-05-01T22:38:15.815Z,16.09
2023-05-01T22:40:44.437Z,16.06
2023-05-01T22:43:13.456Z,16.02
2023-05-01T22:45:42.961Z,15.92
2023-05-01T22:48:12.101Z,15.78
2023-05-01T22:50:42.911Z,15.87
2023-05-01T22:53:11.938Z,15.84
2023-05-01T22:55:40.596Z,15.85
2023-05-01T22:58:09.236Z,15.67
2023-05-01T23:00:38.178Z,15.68
2023-05-01T23:03:06.911Z,15.58
2023-05-01T23:05:35.702Z,15.61
2023-05-01T23:08:06.930Z,15.66
2023-05-01T23:10:35.665Z,15.68
2023-05-01T23:13:04.976Z,15.52
2023-05-01T23:15:33.724Z,15.62
2023-05-01T23:18:02.473Z,15.63
2023-05-01T23:20:31.554Z,15.58
2023-05-01T23:23:05.207Z,15.49
2023-05-01T23:25:35.830Z,15.51
2023-05-01T23:28:06.010Z,15.56
2023-05-01T23:30:34.981Z,15.65
2023-05-01T23:33:06.053Z,15.45
2023-05-01T23:35:36.908Z,15.71
2023-05-01T23:38:05.612Z,15.58
2023-05-01T23:40:36.966Z,15.45
2023-05-01T23:43:06.030Z,15.57
2023-05-01T23:45:34.848Z,15.68
2023-05-01T23:48:03.988Z,15.70
2023-05-01T23:50:33.083Z,15.45
2023-05-01T23:53:04.420Z,15.89
2023-05-01T23:55:33.655Z,15.96
2023-05-01T23:58:03.853Z,15.94
